Time;durP1;ratioP1;P1;durP2;ratioP2;P2;SDS_P1;SDS_P2;PMS_P1;PMS_P2;Temp;Humidity;BMP_temperature;BMP_pressure;BME280_temperature;BME280_humidity;BME280_pressure;Samples;Min_cycle;Max_cycle;Signal;HPM_P1;HPM_P2
2021/08/22 00:00:13;;;;;;;;;;;;;;;26.67;29.23;99564.94;5051710;28;19968;-77
2021/08/22 00:02:40;;;;;;;;;;;;;;;26.62;29.33;99568.34;5034887;28;20039;-78
2021/08/22 00:05:06;;;;;;;;;;;;;;;26.57;29.18;99569.03;5051291;28;19993;-79
2021/08/22 00:07:32;;;;;;;;;;;;;;;26.52;29.30;99573.50;5018076;28;19925;-78
2021/08/22 00:09:58;;;;;;;;;;;;;;;26.51;29.17;99577.28;5034922;28;19932;-79
2021/08/22 00:12:24;;;;;;;;;;;;;;;26.47;29.45;99567.81;5034319;28;20063;-77
2021/08/22 00:14:50;;;;;;;;;;;;;;;26.49;29.27;99571.19;5034294;28;19936;-78
2021/08/22 00:17:15;;;;;;;;;;;;;;;26.48;29.22;99577.72;5034934;28;19929;-79
2021/08/22 00:19:41;;;;;;;;;;;;;;;26.46;29.13;99569.72;5051118;28;19929;-79
2021/08/22 00:22:07;;;;;;;;;;;;;;;26.42;29.24;99579.41;5051671;28;20032;-78
2021/08/22 00:24:33;;;;;;;;;;;;;;;26.45;29.28;99575.41;5017785;28;19964;-80
2021/08/22 00:26:59;;;;;;;;;;;;;;;26.44;29.17;99571.84;5034281;28;20010;-80
2021/08/22 00:29:25;;;;;;;;;;;;;;;26.43;29.17;99575.59;5034044;28;19929;-80
2021/08/22 00:31:50;;;;;;;;;;;;;;;26.39;29.17;99575.22;5034156;28;19932;-81
2021/08/22 00:34:16;;;;;;;;;;;;;;;26.35;29.45;99573.97;5034079;28;19980;-80
2021/08/22 00:36:43;;;;;;;;;;;;;;;26.38;29.17;99579.03;5017390;28;20002;-80
2021/08/22 00:39:09;;;;;;;;;;;;;;;26.42;29.06;99573.94;5050629;28;19929;-79
2021/08/22 00:41:35;;;;;;;;;;;;;;;26.41;29.08;99577.75;5017454;28;19925;-80
2021/08/22 00:44:00;;;;;;;;;;;;;;;26.39;29.13;99575.22;5050234;28;19932;-79
2021/08/22 00:46:26;;;;;;;;;;;;;;;26.40;28.94;99565.94;5033983;28;19968;-81
2021/08/22 00:48:52;;;;;;;;;;;;;;;26.40;28.96;99571.44;5050291;28;19925;-82
2021/08/22 00:51:18;;;;;;;;;;;;;;;26.41;28.94;99575.00;5017943;28;19925;-81
2021/08/22 00:53:44;;;;;;;;;;;;;;;26.39;28.90;99572.47;5033571;28;20376;-79
2021/08/22 00:56:10;;;;;;;;;;;;;;;26.40;28.86;99571.44;5033743;28;19929;-79
2021/08/22 00:58:36;;;;;;;;;;;;;;;26.40;28.72;99571.44;5050273;28;19932;-79
2021/08/22 01:01:01;;;;;;;;;;;;;;;26.40;28.73;99571.44;5034696;28;20055;-79
2021/08/22 01:03:46;;;;;;;;;;;;;;;26.42;28.64;99570.34;5033880;28;19979;-79
2021/08/22 01:06:18;;;;;;;;;;;;;;;26.37;28.68;99571.03;5050821;28;20347;-79
2021/08/22 01:08:45;;;;;;;;;;;;;;;26.37;28.69;99566.38;5049911;28;20391;-80
2021/08/22 01:11:15;;;;;;;;;;;;;;;26.39;28.58;99569.72;5016863;28;19932;-79
2021/08/22 01:13:42;;;;;;;;;;;;;;;26.40;28.54;99571.44;5049949;28;19925;-79
2021/08/22 01:16:08;;;;;;;;;;;;;;;26.41;28.50;99569.53;5033420;28;19932;-79
2021/08/22 01:18:34;;;;;;;;;;;;;;;26.36;28.54;99567.41;5033488;28;19925;-80
2021/08/22 01:21:08;;;;;;;;;;;;;;;26.39;28.66;99564.25;5016783;28;20023;-80
2021/08/22 01:23:34;;;;;;;;;;;;;;;26.42;28.61;99570.34;5033107;28;19925;-80
2021/08/22 01:26:00;;;;;;;;;;;;;;;26.43;28.37;99566.56;5050530;28;19925;-81
2021/08/22 01:28:26;;;;;;;;;;;;;;;26.47;28.37;99565.06;5016556;28;19968;-82
2021/08/22 01:30:51;;;;;;;;;;;;;;;26.51;28.28;99563.56;5016419;28;19929;-80
2021/08/22 01:33:17;;;;;;;;;;;;;;;26.52;28.22;99563.38;5032837;28;19983;-79
2021/08/22 01:35:43;;;;;;;;;;;;;;;26.55;28.06;99567.56;5032736;28;20390;-81
2021/08/22 01:38:09;;;;;;;;;;;;;;;26.55;28.10;99570.28;5016501;28;20269;-79
2021/08/22 01:40:35;;;;;;;;;;;;;;;26.60;28.12;99562.25;5034322;28;20003;-80
2021/08/22 01:43:01;;;;;;;;;;;;;;;26.64;27.83;99571.72;5016267;28;20272;-79
2021/08/22 01:45:26;;;;;;;;;;;;;;;26.67;27.95;99570.41;5049450;28;20023;-79
2021/08/22 01:47:52;;;;;;;;;;;;;;;26.69;27.91;99569.16;5032773;28;20391;-79
2021/08/22 01:50:19;;;;;;;;;;;;;;;26.70;27.91;99570.81;5049436;28;20336;-79
2021/08/22 01:52:45;;;;;;;;;;;;;;;26.72;27.82;99563.22;5016167;28;19974;-79
2021/08/22 01:55:11;;;;;;;;;;;;;;;26.71;27.90;99567.03;5032624;28;19929;-78
2021/08/22 01:57:38;;;;;;;;;;;;;;;26.74;27.88;99572.09;5049398;28;19988;-79
2021/08/22 02:00:04;;;;;;;;;;;;;;;26.76;27.85;99575.41;5032656;28;19994;-82
2021/08/22 02:02:38;;;;;;;;;;;;;;;26.77;27.93;99570.78;5032256;28;19948;-80
2021/08/22 02:05:04;;;;;;;;;;;;;;;26.79;27.92;99569.50;5032380;28;19932;-78
2021/08/22 02:07:31;;;;;;;;;;;;;;;26.78;27.98;99577.94;5016058;28;20315;-81
2021/08/22 02:10:00;;;;;;;;;;;;;;;26.84;27.84;99577.06;5015784;28;19925;-77
2021/08/22 02:12:25;;;;;;;;;;;;;;;26.85;27.96;99574.09;5048676;28;19925;-76
2021/08/22 02:15:01;;;;;;;;;;;;;;;26.89;27.77;99574.47;5032084;28;19932;-77
2021/08/22 02:17:28;;;;;;;;;;;;;;;26.93;27.79;99570.25;5015760;28;19925;-78
2021/08/22 02:19:55;;;;;;;;;;;;;;;26.94;27.54;99576.56;5048673;28;19925;-79
2021/08/22 02:22:21;;;;;;;;;;;;;;;26.97;27.62;99584.31;5016281;28;19925;-78
2021/08/22 02:24:47;;;;;;;;;;;;;;;27.03;27.52;99580.69;5033535;28;19925;-78
2021/08/22 02:27:13;;;;;;;;;;;;;;;27.05;27.46;99587.66;5048744;28;20402;-77
2021/08/22 02:29:46;;;;;;;;;;;;;;;27.04;27.64;99579.63;5032219;28;19968;-78
2021/08/22 02:32:12;;;;;;;;;;;;;;;27.08;27.58;99581.72;5031604;28;19929;-78
2021/08/22 02:34:38;;;;;;;;;;;;;;;27.10;27.47;99582.31;5031883;28;19929;-78
2021/08/22 02:37:04;;;;;;;;;;;;;;;27.19;27.41;99585.63;5048655;28;19925;-79
2021/08/22 02:39:29;;;;;;;;;;;;;;;27.22;27.39;99581.63;5031985;28;19982;-78
2021/08/22 02:41:55;;;;;;;;;;;;;;;27.25;27.38;99590.25;5015475;28;19925;-78
2021/08/22 02:44:21;;;;;;;;;;;;;;;27.30;27.27;99593.13;5031802;28;20395;-78
2021/08/22 02:46:47;;;;;;;;;;;;;;;27.34;27.22;99588.03;5016046;28;19982;-79
2021/08/22 02:49:13;;;;;;;;;;;;;;;27.42;27.13;99586.91;5015837;28;20340;-79
2021/08/22 02:51:39;;;;;;;;;;;;;;;27.43;27.18;99596.84;5048498;28;20067;-78
2021/08/22 02:54:04;;;;;;;;;;;;;;;27.51;27.14;99589.16;5031893;28;19976;-77
2021/08/22 02:56:30;;;;;;;;;;;;;;;27.57;27.05;99592.91;5065126;28;19925;-79
2021/08/22 02:58:56;;;;;;;;;;;;;;;27.53;27.13;99591.66;5015427;28;20289;-77
2021/08/22 03:01:23;;;;;;;;;;;;;;;27.58;27.17;99600.06;5031745;28;20002;-78
2021/08/22 03:03:48;;;;;;;;;;;;;;;27.63;26.98;99591.97;5031654;28;19929;-78
2021/08/22 03:06:14;;;;;;;;;;;;;;;27.67;27.16;99593.19;5015335;28;19925;-78
2021/08/22 03:08:40;;;;;;;;;;;;;;;27.76;26.93;99602.03;5015335;28;20352;-78
2021/08/22 03:11:06;;;;;;;;;;;;;;;27.77;26.92;99601.78;5015286;28;19943;-77
2021/08/22 03:13:31;;;;;;;;;;;;;;;27.75;26.89;99592.09;5050917;28;19924;-77
2021/08/22 03:15:57;;;;;;;;;;;;;;;27.79;26.86;99594.13;5009206;28;19965;-79
2021/08/22 03:18:23;;;;;;;;;;;;;;;27.88;26.66;99580.94;5038779;28;20366;-76
2021/08/22 03:20:48;;;;;;;;;;;;;;;27.98;26.50;99594.13;5017862;28;19924;-78
2021/08/22 03:23:14;;;;;;;;;;;;;;;28.06;26.56;99591.94;5055251;28;20303;-76
2021/08/22 03:25:41;;;;;;;;;;;;;;;28.14;26.44;99596.28;5054313;28;19924;-78
2021/08/22 03:28:07;;;;;;;;;;;;;;;28.23;26.44;99585.78;5038439;28;19924;-77
2021/08/22 03:30:32;;;;;;;;;;;;;;;28.37;26.55;99591.97;5038307;28;20062;-77
2021/08/22 03:32:58;;;;;;;;;;;;;;;28.43;26.48;99588.28;5021662;28;19943;-77
2021/08/22 03:35:24;;;;;;;;;;;;;;;28.49;26.46;99587.38;5021057;28;19931;-76
2021/08/22 03:37:50;;;;;;;;;;;;;;;28.56;26.31;99596.34;5038385;28;19933;-78
2021/08/22 03:40:16;;;;;;;;;;;;;;;28.59;25.96;99595.91;5021895;28;19935;-78
2021/08/22 03:42:41;;;;;;;;;;;;;;;28.62;26.03;99586.31;5054705;28;19925;-78
2021/08/22 03:45:07;;;;;;;;;;;;;;;28.69;25.90;99601.66;5021058;28;19978;-78
2021/08/22 03:47:33;;;;;;;;;;;;;;;28.77;25.90;99601.34;5021332;28;19929;-78
2021/08/22 03:49:59;;;;;;;;;;;;;;;28.83;25.77;99601.47;5037560;28;19925;-79
2021/08/22 03:52:24;;;;;;;;;;;;;;;28.87;25.78;99592.50;5055741;28;20380;-79
2021/08/22 03:54:50;;;;;;;;;;;;;;;28.98;25.78;99588.94;5036489;28;19951;-79
2021/08/22 03:57:16;;;;;;;;;;;;;;;29.01;25.79;99590.41;5035114;28;19925;-82
2021/08/22 03:59:42;;;;;;;;;;;;;;;29.10;25.76;99588.97;5018207;28;19932;-79
2021/08/22 04:02:08;;;;;;;;;;;;;;;29.18;25.66;99588.59;5017790;28;20323;-79
2021/08/22 04:04:59;;;;;;;;;;;;;;;29.14;25.87;99592.09;5054108;28;19984;-78
2021/08/22 04:07:25;;;;;;;;;;;;;;;29.25;25.77;99589.34;5035536;28;20284;-78
2021/08/22 04:09:51;;;;;;;;;;;;;;;29.34;25.85;99586.22;5050781;28;19925;-80
2021/08/22 04:12:17;;;;;;;;;;;;;;;29.38;25.71;99585.53;5051056;28;19968;-77
2021/08/22 04:14:43;;;;;;;;;;;;;;;29.45;25.81;99588.13;5068403;28;19979;-77
2021/08/22 04:17:09;;;;;;;;;;;;;;;29.56;25.86;99590.03;5018871;28;19928;-82
2021/08/22 04:19:34;;;;;;;;;;;;;;;29.58;25.89;99585.19;5035402;28;19956;-82
2021/08/22 04:22:00;;;;;;;;;;;;;;;29.65;25.84;99585.88;5035010;28;20438;-81
2021/08/22 04:24:26;;;;;;;;;;;;;;;29.84;25.81;99591.25;5068686;28;20072;-81
2021/08/22 04:26:52;;;;;;;;;;;;;;;29.96;25.74;99587.38;5018164;28;19968;-80
2021/08/22 04:29:19;;;;;;;;;;;;;;;30.02;25.71;99582.00;5034710;28;19925;-79
2021/08/22 04:31:45;;;;;;;;;;;;;;;30.10;25.83;99584.38;5034326;28;20396;-77
2021/08/22 04:34:11;;;;;;;;;;;;;;;30.18;25.66;99584.84;5050752;28;19952;-92
2021/08/22 04:36:36;;;;;;;;;;;;;;;30.33;25.62;99583.47;5051796;28;19971;-92
2021/08/22 04:39:02;;;;;;;;;;;;;;;30.42;25.76;99582.81;5034448;28;20457;-89
2021/08/22 04:41:28;;;;;;;;;;;;;;;30.50;25.63;99581.56;5054781;28;19964;-87
2021/08/22 04:43:53;;;;;;;;;;;;;;;30.70;25.46;99579.19;5046320;28;19932;-87
2021/08/22 04:46:22;;;;;;;;;;;;;;;30.83;25.38;99580.00;5054782;28;19929;-89
2021/08/22 04:48:48;;;;;;;;;;;;;;;30.92;25.48;99575.75;5038313;28;20391;-87
2021/08/22 04:51:14;;;;;;;;;;;;;;;31.08;25.50;99568.56;5032573;28;19925;-87
2021/08/22 04:53:40;;;;;;;;;;;;;;;31.19;25.61;99570.38;5034396;28;20388;-87
2021/08/22 04:56:06;;;;;;;;;;;;;;;31.29;25.45;99564.16;5040033;28;19968;-87
2021/08/22 04:58:32;;;;;;;;;;;;;;;31.37;25.35;99577.59;5028714;28;20441;-87
2021/08/22 05:00:58;;;;;;;;;;;;;;;31.43;24.72;99563.59;5029859;28;19925;-90
2021/08/22 05:03:24;;;;;;;;;;;;;;;31.56;24.86;99565.16;5070923;28;20379;-88
2021/08/22 05:05:49;;;;;;;;;;;;;;;31.63;24.67;99565.81;5028602;28;19979;-91
2021/08/22 05:08:17;;;;;;;;;;;;;;;31.78;24.69;99565.16;5046012;28;19925;-87
2021/08/22 05:10:44;;;;;;;;;;;;;;;31.95;24.46;99567.91;5081407;28;19924;-87
2021/08/22 05:13:10;;;;;;;;;;;;;;;32.14;24.22;99565.66;5068387;28;19964;-84
2021/08/22 05:15:35;;;;;;;;;;;;;;;32.28;23.76;99571.63;5047020;28;19924;-87
2021/08/22 05:18:01;;;;;;;;;;;;;;;32.36;23.67;99568.41;5053933;28;19921;-84
2021/08/22 05:20:27;;;;;;;;;;;;;;;32.31;23.14;99569.19;5037087;28;20027;-82
2021/08/22 05:22:53;;;;;;;;;;;;;;;32.53;23.38;99562.78;5053494;28;19931;-85
2021/08/22 05:25:19;;;;;;;;;;;;;;;32.77;23.21;99572.44;5037426;28;20307;-90
2021/08/22 05:27:44;;;;;;;;;;;;;;;32.88;22.67;99571.44;5041205;28;19932;-89
2021/08/22 05:30:11;;;;;;;;;;;;;;;33.02;22.60;99566.28;5062092;28;19925;-89
2021/08/22 05:32:37;;;;;;;;;;;;;;;33.11;22.13;99563.88;5036013;28;19971;-87
2021/08/22 05:35:03;;;;;;;;;;;;;;;33.18;21.99;99563.66;5036660;28;19932;-88
2021/08/22 05:37:30;;;;;;;;;;;;;;;33.22;22.13;99562.88;5036003;28;20276;-88
2021/08/22 05:39:55;;;;;;;;;;;;;;;33.35;21.73;99569.84;5053573;28;19924;-86
2021/08/22 05:42:21;;;;;;;;;;;;;;;33.44;21.75;99557.19;5025087;28;19925;-88
2021/08/22 05:44:47;;;;;;;;;;;;;;;33.56;21.58;99559.78;5056977;28;19971;-89
2021/08/22 05:47:18;;;;;;;;;;;;;;;33.57;21.25;99551.19;5053836;28;19931;-87
2021/08/22 05:49:43;;;;;;;;;;;;;;;33.73;21.46;99560.41;5020220;28;20373;-90
2021/08/22 05:52:09;;;;;;;;;;;;;;;33.96;21.08;99570.22;5054189;28;20027;-88
2021/08/22 05:54:36;;;;;;;;;;;;;;;34.05;20.79;99563.09;5052598;28;20279;-86
2021/08/22 05:57:01;;;;;;;;;;;;;;;34.08;20.68;99562.56;5035867;28;20402;-88
2021/08/22 05:59:27;;;;;;;;;;;;;;;34.26;20.49;99563.97;5039657;28;19935;-90
2021/08/22 06:01:53;;;;;;;;;;;;;;;34.42;20.58;99562.09;5032358;28;20388;-90
2021/08/22 06:04:18;;;;;;;;;;;;;;;34.64;19.93;99555.47;5049014;28;19925;-89
2021/08/22 06:06:45;;;;;;;;;;;;;;;34.64;19.83;99553.56;5033466;28;19952;-89
2021/08/22 06:09:11;;;;;;;;;;;;;;;34.68;19.72;99553.81;5049214;28;19931;-86
2021/08/22 06:11:37;;;;;;;;;;;;;;;34.75;19.83;99559.91;5033614;28;20015;-89
2021/08/22 06:14:03;;;;;;;;;;;;;;;34.98;19.53;99561.31;5032232;28;20438;-88
2021/08/22 06:16:28;;;;;;;;;;;;;;;35.02;19.70;99566.09;5049175;28;20003;-87
2021/08/22 06:18:54;;;;;;;;;;;;;;;35.15;19.47;99558.28;5032446;28;20272;-86
2021/08/22 06:21:20;;;;;;;;;;;;;;;35.17;19.22;99556.06;5034937;28;20021;-88
2021/08/22 06:23:45;;;;;;;;;;;;;;;35.32;19.77;99558.84;5033754;28;19975;-89
2021/08/22 06:26:11;;;;;;;;;;;;;;;35.50;19.55;99558.25;5055441;28;19932;-88
2021/08/22 06:28:37;;;;;;;;;;;;;;;35.70;19.59;99550.97;5050560;28;20441;-87
2021/08/22 06:31:02;;;;;;;;;;;;;;;35.85;18.99;99550.09;5024922;28;19925;-86
2021/08/22 06:33:28;;;;;;;;;;;;;;;35.86;18.97;99547.00;5064439;28;19924;-89
2021/08/22 06:36:00;;;;;;;;;;;;;;;36.05;18.99;99549.19;5056309;28;20287;-90
2021/08/22 06:38:26;;;;;;;;;;;;;;;36.19;18.88;99544.69;5043143;28;19963;-87
2021/08/22 06:40:52;;;;;;;;;;;;;;;36.20;18.98;99546.34;5077203;28;20302;-88
2021/08/22 06:43:18;;;;;;;;;;;;;;;36.32;18.74;99540.41;5056027;28;19954;-88
2021/08/22 06:45:43;;;;;;;;;;;;;;;36.46;18.67;99538.66;5039270;28;20310;-89
2021/08/22 06:48:11;;;;;;;;;;;;;;;36.49;18.14;99540.06;5023139;28;19932;-90
2021/08/22 06:50:37;;;;;;;;;;;;;;;36.52;18.35;99545.03;5043344;28;19925;-89
2021/08/22 06:53:02;;;;;;;;;;;;;;;36.50;17.97;99538.94;5042919;28;19925;-91
2021/08/22 06:55:28;;;;;;;;;;;;;;;36.51;17.87;99529.47;5042834;28;19932;-86
2021/08/22 06:57:54;;;;;;;;;;;;;;;36.68;17.66;99538.25;5039315;28;19924;-81
2021/08/22 07:00:20;;;;;;;;;;;;;;;36.87;17.12;99530.84;5056436;28;19952;-84
2021/08/22 07:02:45;;;;;;;;;;;;;;;36.90;16.24;99532.22;5040000;28;20023;-89
2021/08/22 07:05:12;;;;;;;;;;;;;;;36.90;16.09;99523.88;5024329;28;20401;-90
2021/08/22 07:07:38;;;;;;;;;;;;;;;37.05;16.04;99517.31;5051854;28;19929;-90
2021/08/22 07:10:03;;;;;;;;;;;;;;;37.09;15.70;99519.25;5065032;28;20044;-79
2021/08/22 07:12:29;;;;;;;;;;;;;;;37.11;15.93;99517.00;5086144;28;19953;-77
2021/08/22 07:14:55;;;;;;;;;;;;;;;37.23;15.70;99516.59;5055522;28;20406;-78
2021/08/22 07:17:22;;;;;;;;;;;;;;;37.32;15.63;99508.44;5038639;28;20255;-80
2021/08/22 07:19:49;;;;;;;;;;;;;;;37.37;16.06;99513.94;5038886;28;19976;-79
2021/08/22 07:22:15;;;;;;;;;;;;;;;37.48;15.94;99514.69;5022502;28;19986;-80
2021/08/22 07:24:41;;;;;;;;;;;;;;;37.68;15.57;99501.31;5038704;28;20004;-82
2021/08/22 07:27:07;;;;;;;;;;;;;;;37.70;15.49;99506.63;5056615;28;20371;-81
2021/08/22 07:29:33;;;;;;;;;;;;;;;37.81;15.54;99515.69;5055723;28;20391;-81
2021/08/22 07:31:58;;;;;;;;;;;;;;;37.79;15.29;99517.94;5024581;28;19928;-83
2021/08/22 07:34:24;;;;;;;;;;;;;;;37.80;15.14;99505.63;5021953;28;19964;-80
2021/08/22 07:36:50;;;;;;;;;;;;;;;37.89;15.08;99499.13;5055154;28;20363;-82
2021/08/22 07:39:16;;;;;;;;;;;;;;;38.15;15.32;99507.97;5022381;28;20303;-81
2021/08/22 07:41:42;;;;;;;;;;;;;;;38.43;15.04;99501.75;5039589;28;19924;-80
2021/08/22 07:44:07;;;;;;;;;;;;;;;38.45;14.73;99499.47;5021773;28;20350;-80
2021/08/22 07:46:33;;;;;;;;;;;;;;;38.56;14.86;99501.81;5055125;28;19926;-79
2021/08/22 07:48:59;;;;;;;;;;;;;;;38.72;15.01;99496.78;5021849;28;20299;-80
2021/08/22 07:51:25;;;;;;;;;;;;;;;38.83;14.57;99500.28;5055170;28;19925;-80
2021/08/22 07:53:50;;;;;;;;;;;;;;;38.89;14.64;99503.78;5039634;28;19924;-80
2021/08/22 07:56:16;;;;;;;;;;;;;;;38.97;14.29;99505.88;5039814;28;19929;-79
2021/08/22 07:58:42;;;;;;;;;;;;;;;38.96;14.51;99504.22;5040360;28;19924;-80
2021/08/22 08:01:07;;;;;;;;;;;;;;;38.94;14.41;99504.56;5040542;28;19924;-80
2021/08/22 08:03:33;;;;;;;;;;;;;;;38.93;14.34;99494.50;5058584;28;19924;-80
2021/08/22 08:05:59;;;;;;;;;;;;;;;38.96;14.21;99505.06;5040964;28;19979;-79
2021/08/22 08:08:25;;;;;;;;;;;;;;;39.06;14.43;99493.69;5024306;28;19925;-79
2021/08/22 08:10:51;;;;;;;;;;;;;;;39.17;14.25;99494.34;5039524;28;19932;-80
2021/08/22 08:13:16;;;;;;;;;;;;;;;39.28;14.12;99493.03;5023407;28;19925;-78
2021/08/22 08:15:42;;;;;;;;;;;;;;;39.34;13.84;99488.16;5040252;28;20502;-80
2021/08/22 08:18:08;;;;;;;;;;;;;;;39.46;14.05;99484.88;5040301;28;19932;-80
2021/08/22 08:20:34;;;;;;;;;;;;;;;39.68;13.85;99476.56;5039997;28;20403;-80
2021/08/22 08:23:00;;;;;;;;;;;;;;;39.72;13.67;99490.78;5038725;28;19929;-79
2021/08/22 08:25:26;;;;;;;;;;;;;;;39.77;13.44;99477.50;5021322;28;19932;-81
2021/08/22 08:27:51;;;;;;;;;;;;;;;39.77;13.69;99474.72;5037572;28;19925;-81
2021/08/22 08:30:17;;;;;;;;;;;;;;;39.94;13.59;99473.22;5037326;28;20071;-80
2021/08/22 08:32:43;;;;;;;;;;;;;;;40.13;13.48;99470.28;5054987;28;20380;-80
2021/08/22 08:35:19;;;;;;;;;;;;;;;40.18;13.51;99468.22;5023917;28;19931;-80
2021/08/22 08:37:44;;;;;;;;;;;;;;;40.17;13.42;99472.19;5020455;28;20303;-79
2021/08/22 08:40:17;;;;;;;;;;;;;;;40.41;13.34;99469.06;5020614;28;19936;-79
2021/08/22 08:42:45;;;;;;;;;;;;;;;40.49;13.24;99470.28;5054799;28;19925;-80
2021/08/22 08:45:30;;;;;;;;;;;;;;;40.42;13.14;99464.28;5036571;28;19932;-78
2021/08/22 08:47:56;;;;;;;;;;;;;;;40.53;13.12;99474.91;5053467;28;19948;-79
2021/08/22 08:50:43;;;;;;;;;;;;;;;40.62;13.22;99466.59;5036760;28;19924;-80
2021/08/22 08:53:13;;;;;;;;;;;;;;;40.93;12.94;99472.25;5053374;28;19925;-78
2021/08/22 08:55:46;;;;;;;;;;;;;;;40.92;12.78;99464.97;5036554;28;19925;-77
2021/08/22 08:58:12;;;;;;;;;;;;;;;40.81;12.54;99465.56;5020107;28;19932;-82
2021/08/22 09:00:45;;;;;;;;;;;;;;;40.85;12.61;99464.63;5036744;28;19925;-84
2021/08/22 09:03:14;;;;;;;;;;;;;;;40.77;13.01;99457.81;5020321;28;19924;-83
2021/08/22 09:05:40;;;;;;;;;;;;;;;40.94;12.72;99461.84;5036923;28;20407;-85
2021/08/22 09:08:25;;;;;;;;;;;;;;;40.91;12.72;99452.09;5055117;28;19998;-83
2021/08/22 09:10:51;;;;;;;;;;;;;;;41.04;12.34;99449.56;5039812;28;20390;-82
2021/08/22 09:13:35;;;;;;;;;;;;;;;40.94;12.28;99459.88;5021724;28;20026;-82
2021/08/22 09:16:10;;;;;;;;;;;;;;;41.02;12.28;99458.28;5036601;28;19925;-81
2021/08/22 09:18:57;;;;;;;;;;;;;;;41.07;12.17;99448.91;5039612;28;19931;-83
2021/08/22 09:21:54;;;;;;;;;;;;;;;41.01;12.17;99451.88;5039974;28;19931;-82
2021/08/22 09:24:29;;;;;;;;;;;;;;;41.03;12.34;99445.91;5053523;28;19929;-81
2021/08/22 09:27:05;;;;;;;;;;;;;;;41.35;12.36;99452.34;5003496;28;19925;-81
2021/08/22 09:29:46;;;;;;;;;;;;;;;41.42;11.91;99447.94;5036776;28;19928;-81
2021/08/22 09:32:30;;;;;;;;;;;;;;;41.60;11.99;99443.22;5052778;28;19928;-77
2021/08/22 09:35:20;;;;;;;;;;;;;;;41.77;12.26;99438.78;5003422;28;19924;-83
2021/08/22 09:38:05;;;;;;;;;;;;;;;41.96;12.03;99442.13;5032393;28;19924;-87
2021/08/22 09:40:49;;;;;;;;;;;;;;;42.14;11.54;99443.78;5036999;28;19925;-86
2021/08/22 09:43:35;;;;;;;;;;;;;;;42.18;11.70;99433.53;5019907;28;19932;-85
2021/08/22 09:46:20;;;;;;;;;;;;;;;42.66;11.54;99435.38;5036737;28;19924;-85
2021/08/22 09:48:58;;;;;;;;;;;;;;;42.71;11.37;99444.78;5021004;28;20011;-86
2021/08/22 09:51:39;;;;;;;;;;;;;;;42.53;11.29;99433.53;5063226;28;19909;-87
2021/08/22 09:54:08;;;;;;;;;;;;;;;42.44;11.39;99435.53;5038456;28;20288;-87
2021/08/22 09:56:46;;;;;;;;;;;;;;;42.63;11.48;99426.75;5073828;28;19924;-87
2021/08/22 09:59:30;;;;;;;;;;;;;;;42.94;10.82;99420.88;5059903;28;19925;-87
2021/08/22 10:01:59;;;;;;;;;;;;;;;43.34;11.12;99423.38;5054555;28;19925;-88
2021/08/22 10:04:28;;;;;;;;;;;;;;;43.43;11.03;99424.16;5003930;28;19924;-89
2021/08/22 10:07:13;;;;;;;;;;;;;;;43.69;10.72;99417.56;5048069;28;20371;-79
2021/08/22 10:09:57;;;;;;;;;;;;;;;43.94;10.71;99415.78;5052300;28;19963;-77
2021/08/22 10:12:23;;;;;;;;;;;;;;;44.19;10.25;99417.50;5055285;28;19924;-77
2021/08/22 10:14:49;;;;;;;;;;;;;;;44.35;10.32;99417.75;5038786;28;19931;-78
2021/08/22 10:17:22;;;;;;;;;;;;;;;44.51;9.94;99420.75;5042508;28;19924;-77
2021/08/22 10:19:49;;;;;;;;;;;;;;;44.48;9.84;99419.44;5035593;28;19931;-76
2021/08/22 10:22:19;;;;;;;;;;;;;;;44.70;9.74;99428.69;5035302;28;20302;-75
2021/08/22 10:24:56;;;;;;;;;;;;;;;44.87;9.77;99411.56;5034587;28;19925;-75
2021/08/22 10:27:28;;;;;;;;;;;;;;;44.74;9.68;99418.38;5054980;28;19925;-73
2021/08/22 10:29:55;;;;;;;;;;;;;;;44.82;9.55;99403.34;5022166;28;19968;-75
2021/08/22 10:32:21;;;;;;;;;;;;;;;45.40;9.80;99409.75;5072733;28;19929;-74
2021/08/22 10:35:13;;;;;;;;;;;;;;;45.83;9.05;99408.31;5022084;28;20197;-74
2021/08/22 10:37:39;;;;;;;;;;;;;;;46.19;8.68;99410.19;5035340;28;19967;-75
2021/08/22 10:40:21;;;;;;;;;;;;;;;46.47;8.10;99409.38;5021962;28;20399;-76
2021/08/22 10:42:47;;;;;;;;;;;;;;;46.52;8.36;99399.81;5038557;28;20044;-74
2021/08/22 10:45:32;;;;;;;;;;;;;;;46.73;7.92;99397.59;5038427;28;19956;-74
2021/08/22 10:47:58;;;;;;;;;;;;;;;46.83;8.20;99405.56;5072976;28;19982;-75
2021/08/22 10:50:23;;;;;;;;;;;;;;;46.94;8.16;99401.00;5021537;28;19967;-76
2021/08/22 10:52:49;;;;;;;;;;;;;;;46.93;8.34;99402.16;5038292;28;19924;-74
2021/08/22 10:55:15;;;;;;;;;;;;;;;46.97;8.31;99399.44;5054944;28;20349;-74
2021/08/22 10:57:42;;;;;;;;;;;;;;;46.97;7.71;99400.28;5038669;28;20007;-76
2021/08/22 11:00:27;;;;;;;;;;;;;;;46.67;8.00;99401.88;5038674;28;20007;-77
2021/08/22 11:02:53;;;;;;;;;;;;;;;46.47;7.88;99398.91;5038606;28;20410;-76
2021/08/22 11:05:20;;;;;;;;;;;;;;;46.43;8.07;99395.16;5022170;28;20316;-78
2021/08/22 11:07:46;;;;;;;;;;;;;;;46.37;7.88;99388.09;5038442;28;19925;-75
2021/08/22 11:10:12;;;;;;;;;;;;;;;45.37;8.71;99398.34;5038208;28;19925;-75
2021/08/22 11:12:39;;;;;;;;;;;;;;;44.42;9.32;99398.25;5038121;28;19935;-78
2021/08/22 11:15:05;;;;;;;;;;;;;;;43.68;9.70;99393.41;5038347;28;19924;-75
2021/08/22 11:17:31;;;;;;;;;;;;;;;43.14;9.65;99392.06;5054510;28;19961;-76
2021/08/22 11:20:07;;;;;;;;;;;;;;;42.71;10.24;99389.38;5038383;28;19990;-75
2021/08/22 11:22:33;;;;;;;;;;;;;;;42.56;10.52;99389.88;5038193;28;19924;-76
2021/08/22 11:24:59;;;;;;;;;;;;;;;42.32;10.37;99385.66;5021397;28;20350;-75
2021/08/22 11:27:26;;;;;;;;;;;;;;;42.20;10.55;99377.88;5038084;28;19924;-76
2021/08/22 11:30:01;;;;;;;;;;;;;;;42.18;10.35;99377.34;5021503;28;19964;-76
2021/08/22 11:32:27;;;;;;;;;;;;;;;42.58;10.35;99384.75;5031182;28;20019;-74
2021/08/22 11:34:53;;;;;;;;;;;;;;;42.35;10.60;99379.34;5014599;28;20408;-76
2021/08/22 11:37:19;;;;;;;;;;;;;;;42.20;10.49;99374.22;5034904;28;19925;-77
2021/08/22 11:39:45;;;;;;;;;;;;;;;41.86;10.60;99375.06;5035355;28;19925;-75
2021/08/22 11:42:11;;;;;;;;;;;;;;;41.74;10.82;99368.09;5034965;28;19925;-75
2021/08/22 11:44:37;;;;;;;;;;;;;;;42.05;10.64;99369.09;5052112;28;19979;-75
2021/08/22 11:47:03;;;;;;;;;;;;;;;42.38;10.47;99369.41;5034819;28;19929;-75
2021/08/22 11:49:29;;;;;;;;;;;;;;;42.36;10.70;99378.19;5051508;28;19925;-75
2021/08/22 11:51:55;;;;;;;;;;;;;;;42.56;10.72;99371.03;5035025;28;20066;-78
2021/08/22 11:54:21;;;;;;;;;;;;;;;43.66;10.20;99373.22;5034706;28;20015;-76
2021/08/22 11:56:47;;;;;;;;;;;;;;;44.74;10.00;99361.97;5034481;28;19979;-75
2021/08/22 11:59:42;;;;;;;;;;;;;;;45.52;9.18;99358.94;5034782;28;19925;-76
2021/08/22 12:02:19;;;;;;;;;;;;;;;46.20;8.80;99361.00;5036228;28;19932;-76
2021/08/22 12:04:45;;;;;;;;;;;;;;;46.56;8.74;99358.31;5034653;28;19925;-77
2021/08/22 12:07:11;;;;;;;;;;;;;;;46.22;8.75;99352.16;5035875;28;19925;-78
2021/08/22 12:09:37;;;;;;;;;;;;;;;46.46;8.90;99349.19;5051310;28;19984;-76
2021/08/22 12:12:03;;;;;;;;;;;;;;;46.77;8.62;99350.44;5034598;28;20303;-81
2021/08/22 12:14:32;;;;;;;;;;;;;;;47.37;8.87;99353.16;5018178;28;19925;-81
2021/08/22 12:16:58;;;;;;;;;;;;;;;47.68;7.82;99350.19;5034641;28;19925;-80
2021/08/22 12:19:28;;;;;;;;;;;;;;;47.72;8.26;99344.66;5034350;28;19928;-79
2021/08/22 12:21:54;;;;;;;;;;;;;;;47.95;7.64;99341.06;5018146;28;20343;-77
2021/08/22 12:24:20;;;;;;;;;;;;;;;48.19;7.73;99346.47;5017990;28;19925;-75
2021/08/22 12:26:50;;;;;;;;;;;;;;;47.89;7.47;99337.72;5034325;28;19979;-75
2021/08/22 12:29:17;;;;;;;;;;;;;;;48.34;7.75;99342.69;5034272;28;19933;-75
2021/08/22 12:31:42;;;;;;;;;;;;;;;48.57;7.51;99344.75;5050510;28;19925;-75
2021/08/22 12:34:09;;;;;;;;;;;;;;;48.51;7.18;99349.09;5033916;28;19936;-74
2021/08/22 12:36:41;;;;;;;;;;;;;;;48.38;7.26;99340.75;5033769;28;20019;-74
2021/08/22 12:39:11;;;;;;;;;;;;;;;48.71;7.23;99342.16;5001807;28;19925;-75
2021/08/22 12:41:45;;;;;;;;;;;;;;;48.62;7.59;99347.28;5017887;28;20443;-76
2021/08/22 12:44:15;;;;;;;;;;;;;;;48.74;7.16;99337.75;4985210;28;19925;-75
2021/08/22 12:46:41;;;;;;;;;;;;;;;48.28;7.32;99338.53;5017253;28;20287;-75
2021/08/22 12:49:07;;;;;;;;;;;;;;;48.77;7.48;99331.31;5033929;28;19925;-76
2021/08/22 12:51:33;;;;;;;;;;;;;;;48.97;6.67;99337.75;5017662;28;19931;-77